createdAt,value
2019-05-05T00:02:24.765Z,100291.85
2019-05-05T00:05:19.229Z,100289.52
2019-05-05T00:07:49.147Z,100282.41
2019-05-05T00:10:27.477Z,100286.02
2019-05-05T00:13:16.184Z,100284.70
2019-05-05T00:16:04.653Z,100290.77
2019-05-05T00:18:34.993Z,100291.39
2019-05-05T00:21:04.794Z,100294.69
2019-05-05T00:23:34.676Z,100298.41
2019-05-05T00:26:04.753Z,100292.64
2019-05-05T00:28:35.417Z,100291.82
2019-05-05T00:31:05.075Z,100285.33
2019-05-05T00:33:34.957Z,100287.06
2019-05-05T00:36:07.687Z,100281.42
2019-05-05T00:38:36.486Z,100287.45
2019-05-05T00:41:06.602Z,100280.64
2019-05-05T00:43:36.516Z,100274.52
2019-05-05T00:46:12.437Z,100281.39
2019-05-05T00:48:44.951Z,100279.80
2019-05-05T00:51:15.169Z,100276.09
2019-05-05T00:53:45.353Z,100277.25
2019-05-05T00:56:15.324Z,100274.03
2019-05-05T00:58:50.641Z,100278.48
2019-05-05T01:01:38.088Z,100271.32
2019-05-05T01:04:08.409Z,100269.79
2019-05-05T01:06:38.213Z,100267.17
2019-05-05T01:09:09.579Z,100271.10
2019-05-05T01:11:39.755Z,100269.31
2019-05-05T01:14:09.607Z,100271.86
2019-05-05T01:16:39.728Z,100276.02
2019-05-05T01:19:09.492Z,100273.72
2019-05-05T01:21:39.353Z,100267.10
2019-05-05T01:24:09.317Z,100270.02
2019-05-05T01:26:39.292Z,100259.48
2019-05-05T01:29:10.740Z,100264.31
2019-05-05T01:31:40.850Z,100258.88
2019-05-05T01:34:26.049Z,100257.09
2019-05-05T01:37:05.041Z,100258.72
2019-05-05T01:39:41.992Z,100253.70
2019-05-05T01:42:15.877Z,100248.75
2019-05-05T01:44:45.701Z,100234.01
2019-05-05T01:47:15.823Z,100230.79
2019-05-05T01:49:45.606Z,100238.88
2019-05-05T01:52:15.421Z,100237.93
2019-05-05T01:54:45.421Z,100234.86
2019-05-05T01:57:15.572Z,100231.34
2019-05-05T01:59:45.719Z,100229.08
2019-05-05T02:02:15.663Z,100218.80
2019-05-05T02:04:45.653Z,100224.23
2019-05-05T02:07:15.670Z,100225.06
2019-05-05T02:09:45.644Z,100226.97
2019-05-05T02:12:16.067Z,100221.52
2019-05-05T02:14:46.109Z,100224.48
2019-05-05T02:17:16.454Z,100213.31
2019-05-05T02:19:46.686Z,100213.52
2019-05-05T02:22:16.381Z,100215.62
2019-05-05T02:24:46.670Z,100210.63
2019-05-05T02:27:19.599Z,100210.23
2019-05-05T02:29:58.430Z,100200.06
2019-05-05T02:32:47.297Z,100191.39
2019-05-05T02:35:17.410Z,100191.51
2019-05-05T02:37:47.722Z,100181.88
2019-05-05T02:40:20.985Z,100191.86
2019-05-05T02:42:54.715Z,100184.50
2019-05-05T02:45:37.100Z,100191.51
2019-05-05T02:48:15.754Z,100194.59
2019-05-05T02:51:00.011Z,100195.00
2019-05-05T02:53:41.873Z,100189.44
2019-05-05T02:56:17.719Z,100192.45
2019-05-05T02:58:48.885Z,100189.01
2019-05-05T03:01:38.854Z,100195.55
2019-05-05T03:04:09.873Z,100195.55
2019-05-05T03:06:43.961Z,100197.13
2019-05-05T03:09:15.201Z,100202.71
2019-05-05T03:11:48.353Z,100208.45
2019-05-05T03:14:19.978Z,100207.42
2019-05-05T03:16:51.710Z,100198.43
2019-05-05T03:19:24.192Z,100206.47
2019-05-05T03:21:55.147Z,100202.36
2019-05-05T03:24:25.451Z,100205.80
2019-05-05T03:26:55.217Z,100206.12
2019-05-05T03:29:27.039Z,100207.98
2019-05-05T03:31:58.145Z,100209.61
2019-05-05T03:34:28.520Z,100204.81
2019-05-05T03:36:58.571Z,100205.72
2019-05-05T03:39:31.071Z,100208.61
2019-05-05T03:42:26.326Z,100204.52
2019-05-05T03:44:59.184Z,100207.23
2019-05-05T03:47:29.269Z,100210.48
2019-05-05T03:49:59.081Z,100207.85
2019-05-05T03:52:29.555Z,100219.69
2019-05-05T03:55:00.699Z,100209.31
2019-05-05T03:57:30.861Z,100215.83
2019-05-05T04:00:00.742Z,100221.27
2019-05-05T04:02:54.642Z,100229.89
2019-05-05T04:05:30.299Z,100231.39
2019-05-05T04:08:03.922Z,100231.04
2019-05-05T04:10:34.502Z,100229.98
2019-05-05T04:13:04.900Z,100231.27
2019-05-05T04:15:35.798Z,100239.19
2019-05-05T04:18:19.811Z,100242.70
2019-05-05T04:20:49.540Z,100242.44
2019-05-05T04:23:19.486Z,100244.69
2019-05-05T04:25:49.369Z,100250.62
2019-05-05T04:28:19.184Z,100249.07
2019-05-05T04:30:48.903Z,100252.78
2019-05-05T04:33:19.981Z,100250.56
2019-05-05T04:35:49.873Z,100249.36
2019-05-05T04:38:19.785Z,100252.33
2019-05-05T04:40:50.975Z,100242.03
2019-05-05T04:43:20.743Z,100240.47
2019-05-05T04:45:50.577Z,100239.20
2019-05-05T04:48:26.157Z,100239.86
2019-05-05T04:51:20.715Z,100238.81
2019-05-05T04:54:15.377Z,100231.27
2019-05-05T04:56:45.112Z,100248.06
2019-05-05T04:59:15.123Z,100239.58
2019-05-05T05:01:45.761Z,100236.38
2019-05-05T05:04:44.095Z,100237.04
2019-05-05T05:07:15.270Z,100243.14
2019-05-05T05:09:45.016Z,100243.14
2019-05-05T05:12:14.844Z,100239.06
2019-05-05T05:14:44.681Z,100236.50
2019-05-05T05:17:20.023Z,100234.19
2019-05-05T05:19:51.064Z,100236.03
2019-05-05T05:22:20.961Z,100237.34
2019-05-05T05:24:50.763Z,100237.59
2019-05-05T05:27:20.541Z,100241.34
2019-05-05T05:29:50.172Z,100239.58
2019-05-05T05:32:20.026Z,100236.34
2019-05-05T05:34:49.822Z,100229.59
2019-05-05T05:37:20.957Z,100230.68
2019-05-05T05:39:57.104Z,100224.80
2019-05-05T05:42:26.856Z,100216.72
2019-05-05T05:45:18.684Z,100216.64
2019-05-05T05:48:14.385Z,100228.14
2019-05-05T05:50:59.177Z,100228.14
2019-05-05T05:53:28.914Z,100236.09
2019-05-05T05:55:58.800Z,100241.22
2019-05-05T05:58:28.612Z,100232.66
2019-05-05T06:00:59.784Z,100245.84
2019-05-05T06:03:29.656Z,100243.08
2019-05-05T06:05:59.575Z,100249.67
2019-05-05T06:08:30.040Z,100256.58
2019-05-05T06:11:00.035Z,100247.86
2019-05-05T06:13:31.079Z,100247.86
2019-05-05T06:16:00.671Z,100255.27
2019-05-05T06:18:30.501Z,100258.58
2019-05-05T06:21:00.250Z,100263.87
2019-05-05T06:23:30.014Z,100264.21
2019-05-05T06:25:59.846Z,100266.51
2019-05-05T06:28:29.771Z,100265.66
2019-05-05T06:30:59.742Z,100265.35
2019-05-05T06:33:29.588Z,100259.59
2019-05-05T06:35:59.499Z,100261.04
2019-05-05T06:38:30.799Z,100267.15
2019-05-05T06:41:18.393Z,100264.70
2019-05-05T06:44:10.216Z,100271.42
2019-05-05T06:46:57.817Z,100266.50
2019-05-05T06:49:31.145Z,100262.89
2019-05-05T06:52:00.328Z,100256.12
2019-05-05T06:54:30.065Z,100261.19
2019-05-05T06:57:00.041Z,100264.39
2019-05-05T06:59:30.002Z,100263.73
2019-05-05T07:01:59.832Z,100259.49
2019-05-05T07:04:29.720Z,100250.55
2019-05-05T07:06:59.641Z,100247.37
2019-05-05T07:09:29.611Z,100251.63
2019-05-05T07:11:59.391Z,100247.42
2019-05-05T07:14:29.081Z,100246.91
2019-05-05T07:16:58.905Z,100256.52
2019-05-05T07:19:28.817Z,100253.41
2019-05-05T07:21:58.762Z,100248.09
2019-05-05T07:24:28.653Z,100244.59
2019-05-05T07:26:58.560Z,100234.05
2019-05-05T07:29:29.650Z,100234.31
2019-05-05T07:31:59.442Z,100225.40
2019-05-05T07:34:47.437Z,100225.78
2019-05-05T07:37:18.525Z,100226.44
2019-05-05T07:39:48.682Z,100240.42
2019-05-05T07:42:18.172Z,100234.99
2019-05-05T07:44:47.663Z,100234.44
2019-05-05T07:47:17.177Z,100231.88
2019-05-05T07:49:46.675Z,100240.73
2019-05-05T07:52:17.948Z,100233.20
2019-05-05T07:54:47.733Z,100245.00
2019-05-05T07:57:17.573Z,100244.13
2019-05-05T07:59:47.303Z,100249.27
2019-05-05T08:02:17.072Z,100252.46
2019-05-05T08:04:47.050Z,100255.70
2019-05-05T08:07:16.715Z,100255.42
2019-05-05T08:09:46.494Z,100251.55
2019-05-05T08:12:16.380Z,100255.44
2019-05-05T08:14:46.261Z,100252.62
2019-05-05T08:17:44.646Z,100254.21
2019-05-05T08:20:19.402Z,100250.31
2019-05-05T08:22:49.411Z,100235.85
2019-05-05T08:25:40.954Z,100235.59
2019-05-05T08:28:18.192Z,100223.57
2019-05-05T08:31:01.200Z,100223.80
2019-05-05T08:33:31.067Z,100221.06
2019-05-05T08:36:00.882Z,100224.92
2019-05-05T08:38:31.574Z,100215.46
2019-05-05T08:41:01.372Z,100214.77
2019-05-05T08:43:31.101Z,100213.70
2019-05-05T08:46:00.818Z,100200.31
2019-05-05T08:48:30.737Z,100202.41
2019-05-05T08:51:00.575Z,100191.93
2019-05-05T08:53:41.607Z,100183.49
2019-05-05T08:56:03.963Z,100178.64
2019-05-05T08:58:34.436Z,100168.83
2019-05-05T09:01:04.599Z,100164.95
2019-05-05T09:03:34.422Z,100167.43
2019-05-05T09:06:04.786Z,100163.52
2019-05-05T09:08:34.885Z,100177.33
2019-05-05T09:11:04.999Z,100195.17
2019-05-05T09:13:36.191Z,100216.22
2019-05-05T09:16:06.050Z,100225.59
2019-05-05T09:18:38.775Z,100238.70
2019-05-05T09:21:08.609Z,100246.86
2019-05-05T09:23:40.118Z,100241.20
2019-05-05T09:26:31.925Z,100245.56
2019-05-05T09:29:18.665Z,100251.07
2019-05-05T09:31:48.622Z,100256.44
2019-05-05T09:34:18.310Z,100246.04
2019-05-05T09:36:48.223Z,100244.95
2019-05-05T09:39:18.053Z,100251.42
2019-05-05T09:41:47.989Z,100247.37
2019-05-05T09:44:17.866Z,100260.08
2019-05-05T09:46:47.883Z,100259.56
2019-05-05T09:49:18.956Z,100261.64
2019-05-05T09:51:49.317Z,100238.72
2019-05-05T09:54:19.265Z,100229.97
2019-05-05T09:56:50.309Z,100209.42
2019-05-05T09:59:20.108Z,100210.84
2019-05-05T10:01:49.827Z,100206.45
2019-05-05T10:04:19.817Z,100207.38
2019-05-05T10:06:49.578Z,100204.53
2019-05-05T10:09:19.508Z,100203.02
2019-05-05T10:11:49.385Z,100193.77
2019-05-05T10:14:19.303Z,100190.78
2019-05-05T10:16:49.184Z,100200.08
2019-05-05T10:19:18.961Z,100198.86
2019-05-05T10:21:48.870Z,100204.00
2019-05-05T10:24:33.837Z,100206.87
2019-05-05T10:27:04.919Z,100205.03
2019-05-05T10:29:34.822Z,100200.71
2019-05-05T10:32:04.934Z,100196.83
2019-05-05T10:34:34.830Z,100189.23
2019-05-05T10:37:04.905Z,100190.76
2019-05-05T10:39:43.889Z,100188.83
2019-05-05T10:42:14.471Z,100180.23
2019-05-05T10:44:44.629Z,100190.42
2019-05-05T10:47:14.464Z,100195.36
2019-05-05T10:49:44.426Z,100203.09
2019-05-05T10:52:14.478Z,100194.45
2019-05-05T10:54:47.823Z,100196.08
2019-05-05T10:57:18.541Z,100180.55
2019-05-05T10:59:48.552Z,100181.67
2019-05-05T11:02:19.813Z,100166.77
2019-05-05T11:04:50.125Z,100169.39
2019-05-05T11:07:20.029Z,100162.80
2019-05-05T11:09:49.898Z,100156.84
2019-05-05T11:12:19.755Z,100160.73
2019-05-05T11:14:49.678Z,100154.48
2019-05-05T11:17:19.735Z,100141.50
2019-05-05T11:19:50.257Z,100146.80
2019-05-05T11:22:20.145Z,100148.46
2019-05-05T11:24:58.316Z,100148.60
2019-05-05T11:27:21.408Z,100141.04
2019-05-05T11:30:14.479Z,100143.22
2019-05-05T11:33:03.857Z,100147.71
2019-05-05T11:35:49.847Z,100154.03
2019-05-05T11:38:19.747Z,100147.80
2019-05-05T11:40:49.667Z,100157.03
2019-05-05T11:43:20.933Z,100154.26
2019-05-05T11:45:50.626Z,100158.14
2019-05-05T11:48:20.469Z,100161.50
2019-05-05T11:50:50.379Z,100165.47
2019-05-05T11:53:21.537Z,100157.76
2019-05-05T11:55:55.035Z,100154.94
2019-05-05T11:58:25.168Z,100143.21
2019-05-05T12:00:55.069Z,100128.48
2019-05-05T12:03:24.928Z,100123.16
2019-05-05T12:05:55.206Z,100115.53
2019-05-05T12:08:25.005Z,100119.66
2019-05-05T12:10:57.223Z,100123.31
2019-05-05T12:13:26.918Z,100113.34
2019-05-05T12:16:08.329Z,100104.45
2019-05-05T12:18:38.176Z,100110.64
2019-05-05T12:21:08.107Z,100105.13
2019-05-05T12:23:39.167Z,100102.74
2019-05-05T12:26:32.220Z,100105.45
2019-05-05T12:29:20.948Z,100117.23
2019-05-05T12:31:52.376Z,100114.57
2019-05-05T12:34:23.620Z,100113.52
2019-05-05T12:36:54.097Z,100117.27
2019-05-05T12:39:23.838Z,100114.53
2019-05-05T12:41:54.270Z,100113.20
2019-05-05T12:44:34.000Z,100114.81
2019-05-05T12:47:16.634Z,100106.30
2019-05-05T12:49:47.779Z,100106.26
2019-05-05T12:52:17.460Z,100101.78
2019-05-05T12:54:47.367Z,100091.22
2019-05-05T12:57:18.499Z,100086.76
2019-05-05T12:59:48.231Z,100093.92
2019-05-05T13:02:18.512Z,100086.37
2019-05-05T13:04:48.159Z,100077.11
2019-05-05T13:07:18.102Z,100078.95
2019-05-05T13:09:47.957Z,100082.00
2019-05-05T13:12:17.615Z,100084.42
2019-05-05T13:14:47.529Z,100080.69
2019-05-05T13:17:17.489Z,100077.83
2019-05-05T13:20:06.246Z,100081.70
2019-05-05T13:22:55.490Z,100072.41
2019-05-05T13:25:56.755Z,100072.83
2019-05-05T13:28:25.934Z,100068.51
2019-05-05T13:30:55.835Z,100068.75
2019-05-05T13:33:25.805Z,100076.78
2019-05-05T13:35:55.667Z,100084.08
2019-05-05T13:38:25.489Z,100085.24
2019-05-05T13:40:55.344Z,100095.83
2019-05-05T13:43:25.131Z,100087.83
2019-05-05T13:46:03.592Z,100099.09
2019-05-05T13:48:33.791Z,100097.66
2019-05-05T13:51:04.984Z,100098.07
2019-05-05T13:53:34.970Z,100098.74
2019-05-05T13:56:11.779Z,100100.48
2019-05-05T13:58:36.627Z,100087.55
2019-05-05T14:01:09.587Z,100078.17
2019-05-05T14:03:37.891Z,100074.92
2019-05-05T14:06:07.790Z,100064.52
2019-05-05T14:08:38.977Z,100070.69
2019-05-05T14:11:08.745Z,100068.61
2019-05-05T14:13:39.797Z,100075.41
2019-05-05T14:16:09.611Z,100073.74
2019-05-05T14:18:40.591Z,100078.12
2019-05-05T14:21:10.367Z,100068.94
2019-05-05T14:23:57.904Z,100070.97
2019-05-05T14:26:28.522Z,100073.61
2019-05-05T14:29:00.406Z,100073.34
2019-05-05T14:31:36.375Z,100060.02
2019-05-05T14:34:14.030Z,100062.93
2019-05-05T14:37:01.403Z,100066.46
2019-05-05T14:39:34.143Z,100072.02
2019-05-05T14:42:04.543Z,100070.73
2019-05-05T14:44:35.624Z,100070.73
2019-05-05T14:47:05.433Z,100075.50
2019-05-05T14:49:35.093Z,100082.14
2019-05-05T14:52:05.090Z,100086.03
2019-05-05T14:54:35.917Z,100093.61
2019-05-05T14:57:07.280Z,100083.59
2019-05-05T14:59:38.221Z,100083.38
2019-05-05T15:02:08.111Z,100074.64
2019-05-05T15:04:39.818Z,100076.28
2019-05-05T15:07:14.957Z,100069.66
2019-05-05T15:09:51.797Z,100071.37
2019-05-05T15:12:44.668Z,100051.34
2019-05-05T15:15:14.666Z,100055.39
2019-05-05T15:17:44.424Z,100061.64
2019-05-05T15:20:15.965Z,100058.81
2019-05-05T15:22:45.748Z,100071.37
2019-05-05T15:25:15.681Z,100076.17
2019-05-05T15:27:45.549Z,100072.01
2019-05-05T15:30:16.035Z,100062.19
2019-05-05T15:32:45.851Z,100065.77
2019-05-05T15:35:15.719Z,100067.47
2019-05-05T15:37:45.686Z,100070.97
2019-05-05T15:40:16.544Z,100064.52
2019-05-05T15:42:46.427Z,100065.14
2019-05-05T15:45:16.342Z,100078.11
2019-05-05T15:47:46.212Z,100070.73
2019-05-05T15:50:16.312Z,100065.66
2019-05-05T15:52:46.115Z,100065.38
2019-05-05T15:55:17.577Z,100065.09
2019-05-05T15:57:48.738Z,100072.44
2019-05-05T16:00:19.128Z,100084.76
2019-05-05T16:02:49.196Z,100075.91
2019-05-05T16:05:19.075Z,100091.93
2019-05-05T16:07:48.863Z,100091.93
2019-05-05T16:10:22.621Z,100083.05
2019-05-05T16:12:53.830Z,100095.63
2019-05-05T16:15:53.561Z,100095.63
2019-05-05T16:18:32.864Z,100078.17
2019-05-05T16:21:20.998Z,100086.94
2019-05-05T16:23:54.870Z,100089.04
2019-05-05T16:26:25.917Z,100081.78
2019-05-05T16:28:55.693Z,100080.13
2019-05-05T16:31:27.650Z,100081.28
2019-05-05T16:33:57.217Z,100088.19
2019-05-05T16:36:27.102Z,100097.41
2019-05-05T16:38:56.957Z,100099.20
2019-05-05T16:41:26.825Z,100086.45
2019-05-05T16:43:56.674Z,100087.08
2019-05-05T16:46:26.332Z,100077.58
2019-05-05T16:48:56.157Z,100085.46
2019-05-05T16:51:33.344Z,100080.28
2019-05-05T16:54:06.369Z,100091.27
2019-05-05T16:56:37.392Z,100097.38
2019-05-05T16:59:07.408Z,100101.09
2019-05-05T17:01:37.318Z,100103.70
2019-05-05T17:04:11.057Z,100117.14
2019-05-05T17:06:38.588Z,100132.03
2019-05-05T17:09:08.608Z,100128.77
2019-05-05T17:11:39.648Z,100131.45
2019-05-05T17:14:28.330Z,100142.91
2019-05-05T17:17:23.262Z,100154.44
2019-05-05T17:19:59.503Z,100161.44
2019-05-05T17:22:36.562Z,100161.28
2019-05-05T17:25:08.875Z,100160.80
2019-05-05T17:27:47.677Z,100161.12
2019-05-05T17:30:11.651Z,100169.84
2019-05-05T17:32:41.432Z,100176.58
2019-05-05T17:35:11.457Z,100189.59
2019-05-05T17:37:41.331Z,100184.97
2019-05-05T17:40:24.127Z,100195.83
2019-05-05T17:43:27.965Z,100206.51
2019-05-05T17:46:04.591Z,100201.57
2019-05-05T17:48:48.849Z,100199.61
2019-05-05T17:51:26.027Z,100200.92
2019-05-05T17:54:08.801Z,100192.97
2019-05-05T17:56:38.554Z,100189.91
2019-05-05T17:59:08.385Z,100183.34
2019-05-05T18:01:38.389Z,100179.89
2019-05-05T18:04:08.196Z,100174.14
2019-05-05T18:06:48.979Z,100155.19
2019-05-05T18:09:26.960Z,100156.69
2019-05-05T18:12:23.474Z,100170.34
2019-05-05T18:14:54.480Z,100164.25
2019-05-05T18:17:25.419Z,100178.73
2019-05-05T18:19:55.123Z,100175.27
2019-05-05T18:22:24.945Z,100168.35
2019-05-05T18:24:54.976Z,100168.35
2019-05-05T18:27:24.882Z,100155.19
2019-05-05T18:29:54.714Z,100144.84
2019-05-05T18:32:25.868Z,100150.25
2019-05-05T18:34:55.746Z,100153.06
2019-05-05T18:37:25.778Z,100134.80
2019-05-05T18:39:55.516Z,100134.80
2019-05-05T18:42:25.579Z,100135.45
2019-05-05T18:45:08.495Z,100134.47
2019-05-05T18:47:38.342Z,100134.47
2019-05-05T18:50:08.465Z,100131.18
2019-05-05T18:52:38.181Z,100142.19
2019-05-05T18:55:08.101Z,100142.19
2019-05-05T18:57:39.130Z,100138.86
2019-05-05T19:00:11.627Z,100128.83
2019-05-05T19:02:53.579Z,100133.80
2019-05-05T19:05:34.437Z,100125.90
2019-05-05T19:08:25.916Z,100134.30
2019-05-05T19:10:55.916Z,100130.83
2019-05-05T19:13:26.898Z,100133.80
2019-05-05T19:15:56.794Z,100132.98
2019-05-05T19:18:26.598Z,100125.08
2019-05-05T19:21:05.908Z,100130.16
2019-05-05T19:23:35.731Z,100132.14
2019-05-05T19:26:07.611Z,100129.52
2019-05-05T19:28:44.387Z,100136.94
2019-05-05T19:31:10.006Z,100136.94
2019-05-05T19:33:39.829Z,100142.69
2019-05-05T19:36:09.891Z,100152.72
2019-05-05T19:38:39.669Z,100148.58
2019-05-05T19:41:09.588Z,100148.28
2019-05-05T19:43:54.918Z,100150.39
2019-05-05T19:46:31.547Z,100140.55
2019-05-05T19:49:19.157Z,100155.91
2019-05-05T19:51:49.424Z,100154.42
2019-05-05T19:54:19.027Z,100163.84
2019-05-05T19:56:50.036Z,100158.14
2019-05-05T19:59:19.983Z,100142.41
2019-05-05T20:01:49.981Z,100164.02
2019-05-05T20:04:19.817Z,100158.67
2019-05-05T20:06:49.711Z,100151.36
2019-05-05T20:09:20.874Z,100157.27
2019-05-05T20:11:50.750Z,100159.54
2019-05-05T20:14:20.663Z,100163.27
2019-05-05T20:17:07.496Z,100157.30
2019-05-05T20:19:43.767Z,100153.29
2019-05-05T20:22:14.567Z,100149.66
2019-05-05T20:24:44.848Z,100153.32
2019-05-05T20:27:16.291Z,100155.22
2019-05-05T20:29:46.078Z,100159.47
2019-05-05T20:32:17.661Z,100157.39
2019-05-05T20:35:06.268Z,100163.95
2019-05-05T20:37:54.167Z,100163.88
2019-05-05T20:40:26.450Z,100159.73
2019-05-05T20:42:56.341Z,100159.33
2019-05-05T20:45:28.635Z,100158.81
2019-05-05T20:47:58.461Z,100155.64
2019-05-05T20:50:28.449Z,100154.39
2019-05-05T20:52:58.251Z,100150.25
2019-05-05T20:55:28.176Z,100148.39
2019-05-05T20:57:58.119Z,100147.48
2019-05-05T21:00:27.994Z,100149.00
2019-05-05T21:02:57.946Z,100153.73
2019-05-05T21:05:27.728Z,100153.97
2019-05-05T21:07:57.792Z,100142.61
2019-05-05T21:10:27.582Z,100143.98
2019-05-05T21:12:57.496Z,100136.88
2019-05-05T21:15:27.459Z,100133.39
2019-05-05T21:17:57.211Z,100136.97
2019-05-05T21:20:27.136Z,100132.52
2019-05-05T21:23:10.229Z,100133.12
2019-05-05T21:25:44.393Z,100136.97
2019-05-05T21:28:15.036Z,100136.13
2019-05-05T21:30:44.809Z,100137.04
2019-05-05T21:33:14.733Z,100132.76
2019-05-05T21:35:44.494Z,100121.47
2019-05-05T21:38:14.378Z,100127.34
2019-05-05T21:40:44.265Z,100122.91
2019-05-05T21:43:15.463Z,100132.20
2019-05-05T21:45:45.130Z,100137.44
2019-05-05T21:48:15.039Z,100133.44
2019-05-05T21:50:51.103Z,100131.69
2019-05-05T21:53:39.843Z,100124.06
2019-05-05T21:56:28.370Z,100127.63
2019-05-05T21:58:59.031Z,100126.00
2019-05-05T22:01:31.001Z,100120.44
2019-05-05T22:04:00.928Z,100121.36
2019-05-05T22:06:30.811Z,100122.02
2019-05-05T22:09:00.677Z,100117.88
2019-05-05T22:11:30.598Z,100123.61
2019-05-05T22:14:00.570Z,100123.13
2019-05-05T22:16:30.440Z,100115.42
2019-05-05T22:19:00.538Z,100119.33
2019-05-05T22:21:47.571Z,100115.82
2019-05-05T22:24:20.977Z,100118.75
2019-05-05T22:26:50.745Z,100113.20
2019-05-05T22:29:20.634Z,100113.34
2019-05-05T22:31:50.414Z,100123.80
2019-05-05T22:34:20.565Z,100112.59
2019-05-05T22:36:50.582Z,100110.24
2019-05-05T22:39:20.476Z,100110.55
2019-05-05T22:41:50.284Z,100107.45
2019-05-05T22:44:20.464Z,100108.72
2019-05-05T22:46:50.306Z,100099.55
2019-05-05T22:49:20.222Z,100105.99
2019-05-05T22:51:50.206Z,100103.55
2019-05-05T22:54:19.868Z,100108.72
2019-05-05T22:56:49.714Z,100107.92
2019-05-05T22:59:19.611Z,100107.89
2019-05-05T23:01:49.422Z,100115.70
2019-05-05T23:04:27.078Z,100110.28
2019-05-05T23:07:00.809Z,100109.69
2019-05-05T23:09:30.676Z,100109.41
2019-05-05T23:12:00.487Z,100111.20
2019-05-05T23:14:31.569Z,100106.86
2019-05-05T23:17:20.112Z,100107.45
2019-05-05T23:19:55.567Z,100112.42
2019-05-05T23:22:44.418Z,100112.70
2019-05-05T23:25:28.722Z,100109.34
2019-05-05T23:27:59.866Z,100113.14
2019-05-05T23:30:39.374Z,100113.55
2019-05-05T23:33:02.155Z,100110.82
2019-05-05T23:35:34.308Z,100107.05
2019-05-05T23:38:03.934Z,100109.74
2019-05-05T23:40:34.733Z,100106.98
2019-05-05T23:43:04.615Z,100111.80
2019-05-05T23:45:34.385Z,100108.91
2019-05-05T23:48:04.396Z,100116.64
2019-05-05T23:50:34.232Z,100109.13
2019-05-05T23:53:04.023Z,100103.22
2019-05-05T23:55:34.449Z,100102.94
2019-05-05T23:58:04.294Z,100101.63
